Sheakleyville, Pennsylvania
Current Conditions -  °F | °C
As of 8:53 PM on Friday 31 Oct 2014 (Local Time) from KGKJ Reporting Station
Haze Haze  
Wind Chill: 41°   Ceiling: 5000
Heat Index: 41°   Visibility: 3mi
Dew Point: 38°   Wind: 0mph
Humidity: 89%   Direction: NA
Pressure: 29.9"   Gusts: NA
Location:  41.44°N, 80.21°W
Report Text: KGKJ 010053Z AUTO 00000KT 3SM BR OVC050 05/03 A2990 RMK AO2 RAE45 SLP130 P0000 T00500033 TSNO
Loading
Personal Weather Stations






























Interactive Weather Map
Tropical Storm Tracking
New forecast layout! Learn more

10-Day Weather Forecast

Advertisements
Track Severe Weather on mobile